Wooster, OH

3:43 AM EDT on May 23, 2015 (GMT -0400)
Wayne County | | Change Station
CLOSE
Current Station
Airport
Location: Wooster,
Elevation: 1135 ft
Nearby Weather Stations
Active Advisory: Frost Advisory

Elev 1135 ft 40.87 °N, 81.89 °W | Updated 47 minutes ago

Clear
Clear
41 °F
Feels Like 41 °F
N
0
Wind Variable Wind from North

Today
High -- | Low -- °F
--% Chance of Precip.
Yesterday
High -- | Low -- °F
Precip. -- in
6:03 AM 8:45 PM
Waxing Crescent, 28% visible
Pressure 30.34 in
Visibility 10.0 miles
Clouds Clear
Dew Point 33 °F
Humidity 73%
Rainfall 0.00 in
Snow Depth Not available.
UV 0 out of 12
Pollen 9.30 out of 12
Air Quality Not available.
Flu Activity Local Activity
METAR KBJJ 230656Z AUTO 00000KT 10SM CLR 05/01 A3033 RMK AO2 SLP274 T00500006 TSNO

More Conditions Fewer Conditions

Pressure 30.34 in
Visibility 10.0 miles
Clouds Clear
Dew Point 33 °F
Humidity 73%
Rainfall 0.00 in
Snow Depth Not available.
UV 0 out of 12
Pollen 9.30 out of 12
Air Quality Not available.
Flu Activity Local Activity
METAR KBJJ 230656Z AUTO 00000KT 10SM CLR 05/01 A3033 RMK AO2 SLP274 T00500006 TSNO

More Conditions Fewer Conditions

10-Day Weather Forecast

Almanac

Astronomy

May. 23, 2015 Rise Set
Actual Time
Civil Twilight
Nautical Twilight
Astronomical Twilight
Moon
Length of Visible Light
Length of Day
Tomorrow will be .
, % of the Moon is Illuminated

Today's Extremes

State Highs State Lows

Community

WunderPhotos

Upload Photos

1,823,400 photos uploaded!

WunderBlogs® & News

Nearby

Air Quality

  Air Quality AQ Index Pollutant
Not available.

Snow Depth

Station Depth Elevation

Earthquake Activity

City Distance Mag. Time & Date
Minimum magnitude displayed is 2.5.

Coastal Water Temperatures

Place Temperature

Stations

Nearby Weather Stations

Station Location Temp. Windchill Dew Point Humidity Wind Precip. Elev Updated Type
                   
Frost Advisory
Statement as of 9:59 PM EDT on May 22, 2015

... Frost advisory remains in effect until 9 am EDT Saturday...

* temperatures... low temperatures in the lower and mid 30s.
Temperatures will be warmest near the Lakeshore.

* Timing... the lowest temperatures will occur around sunrise
Saturday morning.

* Impacts... frost will result in damage to unprotected tender
vegetation.

Precautionary/preparedness actions...

A frost advisory is issued when frost is expected to develop
during the growing season. Those with agricultural interests in
the warned area are advised to protect tender vegetation. Potted
plants that are outdoors should be covered or brought inside to
protect from the cold.